Time;durP1;ratioP1;P1;durP2;ratioP2;P2;SDS_P1;SDS_P2;PMS_P1;PMS_P2;Temp;Humidity;BMP_temperature;BMP_pressure;BME280_temperature;BME280_humidity;BME280_pressure;Samples;Min_cycle;Max_cycle;Signal;HPM_P1;HPM_P2
2022/05/06 00:00:13;;;;;;;11.53;10.83;;;;;;;10.40;80.72;93384.28;5071898;28;20226;-83
2022/05/06 00:02:39;;;;;;;10.07;9.53;;;;;;;9.98;81.11;93328.06;5059350;28;20268;-83
2022/05/06 00:05:09;;;;;;;10.20;9.70;;;;;;;10.29;81.99;93389.75;5071833;28;20224;-84
2022/05/06 00:07:35;;;;;;;9.73;9.23;;;;;;;10.26;81.64;93391.03;5071597;28;20236;-83
2022/05/06 00:10:04;;;;;;;10.97;10.33;;;;;;;10.23;81.58;93381.09;5070589;28;20190;-83
2022/05/06 00:12:30;;;;;;;10.00;9.40;;;;;;;9.97;82.11;93355.94;5067292;28;20256;-84
2022/05/06 00:14:55;;;;;;;10.40;9.80;;;;;;;10.07;82.58;93391.72;5075748;28;20249;-83
2022/05/06 00:17:21;;;;;;;9.47;8.97;;;;;;;10.08;82.21;93378.44;5070638;28;20293;-83
2022/05/06 00:19:46;;;;;;;10.73;10.17;;;;;;;9.49;82.79;93311.97;5073998;28;20213;-84
2022/05/06 00:22:12;;;;;;;10.63;9.93;;;;;;;9.87;82.62;93391.66;5070233;28;20228;-84
2022/05/06 00:24:37;;;;;;;10.40;9.80;;;;;;;9.88;82.86;93395.81;5066696;28;20195;-83
2022/05/06 00:27:04;;;;;;;10.53;9.97;;;;;;;9.98;83.09;93404.47;5064698;28;20237;-83
2022/05/06 00:29:29;;;;;;;10.53;9.93;;;;;;;9.85;82.31;93385.88;5069806;28;20203;-83
2022/05/06 00:31:55;;;;;;;10.07;9.47;;;;;;;9.63;82.36;93383.44;5066982;28;20261;-84
2022/05/06 00:34:21;;;;;;;10.37;9.77;;;;;;;10.06;82.25;93405.78;5075244;28;20215;-85
2022/05/06 00:36:46;;;;;;;10.43;9.80;;;;;;;10.06;82.03;93400.56;5070545;28;20234;-85
2022/05/06 00:39:12;;;;;;;11.17;10.57;;;;;;;9.94;82.37;93381.75;5072732;28;20190;-86
2022/05/06 00:41:38;;;;;;;10.00;9.50;;;;;;;9.97;82.69;93404.72;5070388;28;20233;-88
2022/05/06 00:44:07;;;;;;;10.30;9.77;;;;;;;10.00;83.31;93402.38;5076154;28;20194;-87
2022/05/06 00:46:37;;;;;;;10.37;9.87;;;;;;;10.01;82.88;93409.16;5071190;28;20232;-89
2022/05/06 00:49:06;;;;;;;10.37;9.77;;;;;;;9.53;84.01;93373.75;5072469;28;20251;-88
2022/05/06 00:51:32;;;;;;;10.00;9.50;;;;;;;9.65;83.54;93376.94;5065322;28;20232;-86
2022/05/06 00:53:58;;;;;;;10.37;9.80;;;;;;;9.86;83.25;93390.06;5067829;28;20255;-86
2022/05/06 00:56:24;;;;;;;9.53;8.93;;;;;;;9.70;84.16;93399.63;5066348;28;20221;-86
2022/05/06 00:58:51;;;;;;;11.07;10.37;;;;;;;9.78;83.67;93420.81;5061012;28;20173;-85
2022/05/06 01:01:17;;;;;;;11.10;10.30;;;;;;;9.47;84.67;93376.56;5072229;28;20249;-86
2022/05/06 01:03:43;;;;;;;10.43;9.83;;;;;;;9.60;84.58;93381.34;5073695;28;20181;-85
2022/05/06 01:06:13;;;;;;;10.87;10.27;;;;;;;9.83;83.99;93407.00;5072616;28;20229;-85
2022/05/06 01:08:43;;;;;;;10.60;10.00;;;;;;;9.56;84.92;93420.16;5060842;28;20280;-86
2022/05/06 01:11:15;;;;;;;10.50;10.00;;;;;;;9.44;85.37;93396.13;5072128;28;20274;-85
2022/05/06 01:13:43;;;;;;;10.20;9.53;;;;;;;9.65;84.66;93407.44;5057204;28;20205;-85
2022/05/06 01:16:09;;;;;;;11.17;10.57;;;;;;;9.33;86.07;93393.69;5051362;28;20237;-85
2022/05/06 01:18:35;;;;;;;10.27;9.60;;;;;;;9.43;86.17;93406.81;5052045;28;20209;-85
2022/05/06 01:21:03;;;;;;;12.00;11.13;;;;;;;9.56;84.69;93407.13;5049469;28;20230;-84
2022/05/06 01:23:28;;;;;;;9.50;9.00;;;;;;;9.48;84.63;93394.56;5051816;28;20186;-84
2022/05/06 01:25:54;;;;;;;10.97;10.27;;;;;;;9.58;85.17;93399.84;5052027;28;20262;-84
2022/05/06 01:28:22;;;;;;;10.83;10.13;;;;;;;9.65;84.66;93392.56;5062035;28;20190;-84
2022/05/06 01:30:48;;;;;;;9.30;8.80;;;;;;;9.73;84.75;93399.13;5073142;28;20193;-84
2022/05/06 01:33:18;;;;;;;10.20;9.50;;;;;;;9.68;85.02;93404.34;5073137;28;20232;-85
2022/05/06 01:35:50;;;;;;;11.00;10.13;;;;;;;9.62;84.81;93400.91;5069846;28;20178;-84
2022/05/06 01:38:49;;;;;;;10.33;9.53;;;;;;;9.56;85.62;93406.34;5068888;28;20807;-84
2022/05/06 01:41:21;;;;;;;10.97;10.27;;;;;;;9.31;85.90;93372.31;5064139;28;20225;-84
2022/05/06 01:43:55;;;;;;;10.60;10.10;;;;;;;9.36;85.75;93378.34;5072019;28;20192;-84
2022/05/06 01:46:22;;;;;;;11.03;10.33;;;;;;;9.65;85.57;93404.81;5072897;28;20218;-82
2022/05/06 01:48:49;;;;;;;11.23;10.33;;;;;;;9.49;85.17;93382.34;5067305;28;20189;-83
2022/05/06 01:51:15;;;;;;;11.40;10.53;;;;;;;9.57;85.52;93392.28;5072404;28;20244;-82
2022/05/06 01:53:44;;;;;;;9.83;9.10;;;;;;;9.61;84.82;93398.56;5073628;28;20185;-83
2022/05/06 01:56:11;;;;;;;10.23;9.53;;;;;;;9.38;85.86;93398.94;5071959;28;20255;-83
2022/05/06 01:58:36;;;;;;;10.57;9.77;;;;;;;9.37;86.07;93389.56;5067529;28;20182;-84
2022/05/06 02:01:02;;;;;;;10.37;9.67;;;;;;;9.42;86.17;93405.22;5064368;28;20232;-84
2022/05/06 02:06:12;;;;;;;10.00;9.50;;;;;;;9.38;86.29;93404.94;5065376;28;20243;-84
2022/05/06 02:08:37;;;;;;;10.40;9.90;;;;;;;9.20;87.15;93378.47;5066796;28;20185;-85
2022/05/06 02:11:03;;;;;;;10.13;9.63;;;;;;;9.22;86.84;93376.44;5065486;28;20225;-86
2022/05/06 02:13:28;;;;;;;10.67;10.10;;;;;;;9.24;86.62;93371.75;5068738;28;20260;-90
2022/05/06 02:15:54;;;;;;;10.57;10.07;;;;;;;9.13;86.56;93383.94;5070752;28;20260;-91
2022/05/06 02:18:19;;;;;;;9.40;8.90;;;;;;;9.05;86.68;93375.78;5070337;28;20185;-91
2022/05/06 02:20:45;;;;;;;10.37;9.77;;;;;;;9.19;87.15;93401.16;5068984;28;20196;-88
2022/05/06 02:23:12;;;;;;;11.27;10.50;;;;;;;9.27;87.18;93392.88;5069626;28;20223;-89
2022/05/06 02:25:38;;;;;;;10.97;10.37;;;;;;;9.38;86.61;93404.94;5067660;28;20210;-88
2022/05/06 02:28:04;;;;;;;10.60;10.03;;;;;;;9.27;87.16;93412.94;5074320;28;20193;-88
2022/05/06 02:33:15;;;;;;;11.63;10.93;;;;;;;9.45;86.76;93402.91;5074289;28;20374;-88
2022/05/06 02:35:42;;;;;;;10.30;9.70;;;;;;;9.36;86.56;93386.16;5080298;28;20193;-88
2022/05/06 02:38:09;;;;;;;12.87;12.07;;;;;;;9.30;87.12;93391.59;5072842;28;20241;-89
2022/05/06 02:40:36;;;;;;;12.30;11.50;;;;;;;9.45;86.97;93400.28;5073150;28;20200;-85
2022/05/06 02:43:04;;;;;;;10.90;10.20;;;;;;;9.50;86.58;93391.72;5073384;28;20205;-89
2022/05/06 02:45:30;;;;;;;11.97;11.17;;;;;;;9.03;87.63;93349.19;5068600;28;20184;-88
2022/05/06 02:47:57;;;;;;;11.40;10.70;;;;;;;9.18;88.00;93367.56;5069606;28;20260;-89
2022/05/06 02:50:23;;;;;;;11.20;10.33;;;;;;;9.26;88.05;93398.34;5074148;28;20195;-88
2022/05/06 02:52:49;;;;;;;12.13;11.33;;;;;;;9.17;88.09;93390.22;5070813;28;20246;-88
2022/05/06 02:55:14;;;;;;;11.27;10.57;;;;;;;9.03;88.34;93364.81;5073520;28;20268;-88
2022/05/06 02:57:40;;;;;;;10.87;10.27;;;;;;;9.00;87.84;93367.94;5075433;28;20217;-88
2022/05/06 03:00:07;;;;;;;12.00;11.20;;;;;;;8.94;87.93;93350.72;5067932;28;20185;-89
2022/05/06 03:02:32;;;;;;;11.40;10.73;;;;;;;9.25;88.06;93401.97;5066444;28;20217;-87
2022/05/06 03:04:58;;;;;;;11.83;11.03;;;;;;;9.18;88.29;93389.16;5068895;28;20185;-88
2022/05/06 03:07:23;;;;;;;11.07;10.37;;;;;;;9.36;87.77;93401.00;5060728;28;20225;-87
2022/05/06 03:09:49;;;;;;;11.70;11.00;;;;;;;9.25;87.43;93381.94;5072024;28;20182;-89
2022/05/06 03:12:29;;;;;;;10.37;9.77;;;;;;;9.06;87.49;93344.28;5069624;28;20221;-88
2022/05/06 03:14:55;;;;;;;11.03;10.33;;;;;;;9.31;87.30;93393.94;5071079;28;20211;-89
2022/05/06 03:17:20;;;;;;;11.07;10.43;;;;;;;9.47;87.16;93392.22;5058450;28;20221;-88
2022/05/06 03:19:46;;;;;;;10.57;10.03;;;;;;;9.18;87.49;93367.56;5071040;28;20194;-88
2022/05/06 03:22:12;;;;;;;11.90;11.20;;;;;;;9.17;88.08;93371.97;5061221;28;20227;-91
2022/05/06 03:24:38;;;;;;;11.30;10.60;;;;;;;9.30;87.95;93391.59;5063063;28;20216;-84
2022/05/06 03:27:04;;;;;;;11.53;10.83;;;;;;;9.45;87.71;93415.13;5070482;28;20300;-93
2022/05/06 03:29:29;;;;;;;11.17;10.57;;;;;;;9.44;87.06;93393.50;5068287;28;20179;-93
2022/05/06 03:31:56;;;;;;;11.03;10.33;;;;;;;9.54;87.00;93403.22;5071920;28;20249;-93
2022/05/06 03:34:22;;;;;;;10.40;9.80;;;;;;;9.63;86.53;93417.34;5072813;28;20186;-91
2022/05/06 03:36:48;;;;;;;12.17;11.47;;;;;;;9.42;86.54;93394.78;5074325;28;20275;-89
2022/05/06 03:39:13;;;;;;;11.23;10.53;;;;;;;9.46;87.33;93421.94;5071395;28;20196;-91
2022/05/06 03:41:39;;;;;;;12.93;12.00;;;;;;;9.52;87.37;93426.13;5060705;28;20229;-90
2022/05/06 03:44:08;;;;;;;12.30;11.53;;;;;;;9.40;87.28;93409.91;5070954;28;20189;-93
2022/05/06 03:46:33;;;;;;;11.07;10.17;;;;;;;9.37;87.29;93398.16;5058968;28;20237;-91
2022/05/06 03:49:01;;;;;;;11.53;10.83;;;;;;;9.42;87.32;93402.59;5065064;28;20185;-93
2022/05/06 03:51:28;;;;;;;12.07;11.27;;;;;;;9.61;87.44;93429.84;5073319;28;20233;-92
2022/05/06 03:53:56;;;;;;;11.73;11.03;;;;;;;9.74;87.38;93450.25;5070020;28;20940;-91
2022/05/06 03:56:22;;;;;;;12.70;11.80;;;;;;;9.66;87.65;93448.88;5069497;28;20229;-90
2022/05/06 03:58:48;;;;;;;11.57;10.97;;;;;;;9.65;87.26;93443.94;5062691;28;20213;-87
2022/05/06 04:01:16;;;;;;;13.40;12.40;;;;;;;9.67;87.65;93447.06;5063617;28;20248;-91
2022/05/06 04:03:41;;;;;;;12.43;11.50;;;;;;;9.73;87.40;93451.28;5072732;28;20670;-87
2022/05/06 04:06:07;;;;;;;12.30;11.57;;;;;;;9.49;87.62;93411.00;5078116;28;20278;-91
2022/05/06 04:08:33;;;;;;;11.80;11.10;;;;;;;9.70;87.55;93439.53;5068225;28;20216;-91
2022/05/06 04:10:58;;;;;;;13.13;12.27;;;;;;;9.82;87.38;93442.72;5067996;28;20215;-87
2022/05/06 04:13:24;;;;;;;12.20;11.23;;;;;;;9.86;86.88;93437.00;5055223;28;20209;-92
2022/05/06 04:15:50;;;;;;;12.67;11.77;;;;;;;9.80;87.46;93428.38;5068835;28;20191;-90
2022/05/06 04:18:17;;;;;;;12.77;11.63;;;;;;;9.82;88.23;93447.19;5038620;28;20194;-87
2022/05/06 04:23:29;;;;;;;13.20;11.93;;;;;;;9.92;87.42;93415.91;5072566;28;20209;-78
2022/05/06 04:25:56;;;;;;;11.30;10.60;;;;;;;9.92;87.52;93442.00;5073858;28;20303;-87
2022/05/06 04:28:23;;;;;;;12.70;11.80;;;;;;;10.06;86.91;93443.09;5057870;28;20194;-87
2022/05/06 04:30:49;;;;;;;11.10;10.37;;;;;;;10.30;86.59;93444.28;5075043;28;20293;-88
2022/05/06 04:33:14;;;;;;;12.23;11.43;;;;;;;10.18;85.59;93415.00;5072253;28;20234;-84
2022/05/06 04:35:39;;;;;;;13.33;12.30;;;;;;;10.26;85.25;93448.44;5071794;28;20710;-83
2022/05/06 04:38:05;;;;;;;11.47;10.77;;;;;;;10.50;85.46;93467.06;5052928;28;20669;-84
2022/05/06 04:40:31;;;;;;;12.93;12.03;;;;;;;10.43;85.19;93464.66;5055277;28;20214;-84
2022/05/06 04:42:57;;;;;;;13.23;12.33;;;;;;;10.19;84.57;93447.91;5070561;28;20272;-89
2022/05/06 04:45:23;;;;;;;13.20;12.20;;;;;;;10.38;85.26;93467.25;5074927;28;20185;-88
2022/05/06 04:47:48;;;;;;;13.23;12.13;;;;;;;10.40;84.88;93461.78;5070363;28;20228;-85
2022/05/06 04:50:13;;;;;;;12.83;11.83;;;;;;;10.59;84.14;93460.28;5071470;28;20238;-85
2022/05/06 04:52:39;;;;;;;16.43;14.83;;;;;;;10.52;83.34;93426.56;5054817;28;20266;-80
2022/05/06 04:55:05;;;;;;;14.10;12.97;;;;;;;10.48;84.52;93404.66;5054975;28;20220;-85
2022/05/06 04:57:30;;;;;;;13.60;12.60;;;;;;;10.60;84.28;93449.59;5051797;28;20313;-82
2022/05/06 04:59:56;;;;;;;14.63;13.43;;;;;;;10.82;83.25;93472.88;5054675;28;20262;-86
2022/05/06 05:02:21;;;;;;;13.57;12.57;;;;;;;11.03;81.89;93462.22;5050570;28;20268;-87
2022/05/06 05:04:48;;;;;;;13.73;12.63;;;;;;;11.07;81.13;93458.03;5051052;28;20202;-84
2022/05/06 05:07:13;;;;;;;13.70;12.63;;;;;;;11.26;80.69;93474.78;5036203;28;20242;-89
2022/05/06 05:09:39;;;;;;;13.50;12.40;;;;;;;11.56;80.50;93484.44;5051011;28;20187;-89
2022/05/06 05:12:04;;;;;;;13.67;12.67;;;;;;;11.67;79.50;93495.69;5050365;28;20258;-87
2022/05/06 05:14:33;;;;;;;13.90;12.87;;;;;;;11.31;78.34;93466.16;5050396;28;20594;-85
2022/05/06 05:16:58;;;;;;;14.50;13.37;;;;;;;11.71;77.83;93486.28;5050017;28;20233;-90
2022/05/06 05:19:24;;;;;;;13.23;12.27;;;;;;;11.68;78.29;93497.25;5043536;28;20178;-82
2022/05/06 05:21:49;;;;;;;14.10;13.00;;;;;;;12.07;76.85;93485.16;5049923;28;20358;-80
2022/05/06 05:24:15;;;;;;;14.37;13.33;;;;;;;12.28;76.25;93487.44;5051742;28;21024;-85
2022/05/06 05:26:40;;;;;;;13.60;12.63;;;;;;;11.74;76.14;93480.50;5070644;28;20225;-84
2022/05/06 05:29:05;;;;;;;13.43;12.33;;;;;;;12.26;74.95;93491.41;5050134;28;20190;-84
2022/05/06 05:31:31;;;;;;;14.00;12.93;;;;;;;12.82;73.35;93500.59;5057846;28;20252;-84
2022/05/06 05:33:57;;;;;;;12.53;11.57;;;;;;;13.06;72.25;93493.66;5058457;28;20321;-83
2022/05/06 05:36:22;;;;;;;14.03;13.00;;;;;;;13.35;70.67;93485.88;5063474;28;20224;-86
2022/05/06 05:38:48;;;;;;;14.17;13.07;;;;;;;13.74;71.39;93503.13;5070154;28;20196;-86
2022/05/06 05:41:13;;;;;;;12.17;11.37;;;;;;;13.97;67.39;93478.00;5073392;28;20221;-86
2022/05/06 05:49:08;;;;;;;13.40;12.37;;;;;;;15.71;61.57;93502.38;5044446;28;20188;-82
2022/05/06 05:51:33;;;;;;;13.03;11.87;;;;;;;15.09;63.12;93492.22;5038817;28;20303;-84
2022/05/06 05:53:59;;;;;;;12.93;11.77;;;;;;;15.41;62.27;93482.56;5048456;28;20194;-82
2022/05/06 05:56:25;;;;;;;12.57;11.67;;;;;;;15.36;63.09;93498.38;5056612;28;20276;-81
2022/05/06 05:58:51;;;;;;;13.77;12.67;;;;;;;17.69;56.98;93496.41;5066675;28;20177;-81
2022/05/06 06:01:18;;;;;;;12.87;11.90;;;;;;;18.73;53.19;93506.16;5071161;28;20235;-83
2022/05/06 06:03:43;;;;;;;12.53;11.63;;;;;;;19.76;49.33;93507.13;5066898;28;20212;-85
2022/05/06 06:06:09;;;;;;;12.13;11.30;;;;;;;20.78;46.48;93502.72;5065649;28;20222;-81
2022/05/06 06:08:35;;;;;;;11.90;11.10;;;;;;;19.70;47.46;93484.53;5067243;28;20619;-80
2022/05/06 06:11:01;;;;;;;12.63;11.63;;;;;;;18.62;50.41;93498.81;5065580;28;20220;-84
2022/05/06 06:13:28;;;;;;;10.90;10.10;;;;;;;19.06;48.95;93461.56;5053807;28;20220;-83
2022/05/06 06:15:53;;;;;;;12.43;11.63;;;;;;;18.11;51.32;93459.69;5068763;28;20202;-79
2022/05/06 06:18:24;;;;;;;15.50;11.60;;;;;;;19.29;50.28;93480.78;5065205;28;20445;-78
2022/05/06 06:20:49;;;;;;;12.00;11.20;;;;;;;19.61;49.64;93475.78;5066100;28;20204;-79
2022/05/06 06:23:15;;;;;;;11.60;10.77;;;;;;;18.37;49.80;93496.81;5067465;28;20181;-78
2022/05/06 06:25:41;;;;;;;10.80;10.00;;;;;;;17.81;52.75;93496.63;5066228;28;20223;-79
2022/05/06 06:28:06;;;;;;;11.23;10.43;;;;;;;17.38;53.49;93478.59;5065909;28;20200;-84
2022/05/06 06:30:32;;;;;;;11.70;10.90;;;;;;;16.74;55.26;93478.94;5057332;28;20285;-84
2022/05/06 06:32:58;;;;;;;11.23;10.43;;;;;;;16.80;55.11;93463.75;5058571;28;20237;-87
2022/05/06 06:35:23;;;;;;;12.10;11.30;;;;;;;16.62;55.51;93444.38;5065365;28;21032;-80
2022/05/06 06:37:49;;;;;;;11.17;10.37;;;;;;;17.00;54.08;93487.06;5061571;28;20229;-80
2022/05/06 06:40:14;;;;;;;11.53;10.83;;;;;;;16.66;54.76;93476.97;5054821;28;20205;-83
2022/05/06 06:42:42;;;;;;;10.40;9.70;;;;;;;16.22;55.57;93465.44;5069823;28;20263;-89
2022/05/06 06:45:09;;;;;;;11.50;10.80;;;;;;;16.03;59.42;93439.16;5068764;28;20254;-85
2022/05/06 06:47:35;;;;;;;11.40;10.60;;;;;;;16.77;56.56;93483.59;5068355;28;20224;-83
2022/05/06 06:50:01;;;;;;;10.93;10.07;;;;;;;16.81;55.47;93479.28;5071106;28;20185;-89
2022/05/06 06:52:26;;;;;;;10.83;10.20;;;;;;;16.83;54.69;93466.59;5069223;28;20232;-87
2022/05/06 06:54:52;;;;;;;11.47;10.77;;;;;;;16.60;54.54;93480.78;5068320;28;20204;-84
2022/05/06 06:57:17;;;;;;;10.93;10.20;;;;;;;16.84;56.17;93491.88;5069300;28;20262;-76
2022/05/06 06:59:43;;;;;;;11.97;11.13;;;;;;;16.61;57.61;93492.88;5065865;28;20212;-77
2022/05/06 07:02:08;;;;;;;11.57;10.80;;;;;;;17.02;55.41;93484.94;5074202;28;20275;-81
2022/05/06 07:04:33;;;;;;;11.80;10.90;;;;;;;16.61;56.45;93444.63;5066322;28;20178;-81
2022/05/06 07:12:27;;;;;;;11.87;10.87;;;;;;;16.80;57.58;93477.75;5067990;28;20232;-81
2022/05/06 07:14:54;;;;;;;12.33;11.53;;;;;;;16.81;56.63;93487.22;5069977;28;20190;-79
2022/05/06 07:17:20;;;;;;;12.93;11.73;;;;;;;17.04;56.46;93482.78;5072693;28;20217;-79
2022/05/06 07:19:45;;;;;;;11.20;10.27;;;;;;;17.10;56.54;93486.88;5069508;28;20193;-79
2022/05/06 07:22:11;;;;;;;12.13;11.23;;;;;;;16.86;57.64;93502.16;5058348;28;20222;-79
2022/05/06 07:24:36;;;;;;;13.13;12.13;;;;;;;17.00;56.60;93501.06;5052639;28;20277;-79
2022/05/06 07:27:02;;;;;;;12.33;11.43;;;;;;;16.96;55.89;93476.38;5061393;28;20226;-80
2022/05/06 07:29:28;;;;;;;12.87;11.90;;;;;;;16.69;56.69;93471.09;5067514;28;20193;-78
2022/05/06 07:31:54;;;;;;;12.17;11.33;;;;;;;16.94;55.58;93496.97;5049988;28;20269;-83
2022/05/06 07:34:19;;;;;;;12.40;11.50;;;;;;;16.98;56.11;93471.56;5043196;28;20178;-76
2022/05/06 07:36:44;;;;;;;11.87;11.00;;;;;;;16.76;57.08;93497.84;5049203;28;20237;-77
2022/05/06 07:39:14;;;;;;;11.37;10.67;;;;;;;17.18;56.64;93494.84;5041387;28;20182;-79
2022/05/06 07:41:40;;;;;;;12.30;11.10;;;;;;;17.62;55.46;93504.72;5059789;28;20230;-79
2022/05/06 07:44:07;;;;;;;11.43;10.40;;;;;;;17.94;54.76;93509.78;5050327;28;20206;-78
2022/05/06 07:46:33;;;;;;;11.20;10.27;;;;;;;17.73;55.50;93500.00;5062641;28;20255;-78
2022/05/06 07:48:59;;;;;;;11.30;10.40;;;;;;;17.56;55.98;93504.09;5072517;28;20268;-78
2022/05/06 07:51:25;;;;;;;12.33;11.23;;;;;;;17.63;55.25;93500.25;5068946;28;20680;-78
2022/05/06 07:53:52;;;;;;;11.23;10.43;;;;;;;17.66;54.72;93500.44;5065432;28;20190;-78
2022/05/06 07:56:21;;;;;;;11.33;10.53;;;;;;;17.25;54.88;93502.38;5074451;28;20221;-78
2022/05/06 07:58:46;;;;;;;12.33;11.33;;;;;;;17.63;55.34;93485.94;5067119;28;20245;-78
2022/05/06 08:01:12;;;;;;;12.57;11.53;;;;;;;17.80;54.19;93492.44;5065348;28;20239;-78
2022/05/06 08:06:22;;;;;;;11.40;10.50;;;;;;;17.80;54.35;93503.00;5071880;28;20252;-78
2022/05/06 08:08:47;;;;;;;11.57;10.63;;;;;;;17.88;54.63;93502.28;5086827;28;20178;-78
2022/05/06 08:11:13;;;;;;;12.17;11.30;;;;;;;17.79;54.84;93498.81;5068913;28;20220;-79
2022/05/06 08:13:39;;;;;;;10.77;10.07;;;;;;;17.88;54.84;93489.88;5069584;28;20213;-78
2022/05/06 08:16:04;;;;;;;11.47;10.67;;;;;;;18.28;53.47;93490.69;5070224;28;20268;-77
2022/05/06 08:18:30;;;;;;;11.00;10.30;;;;;;;18.20;53.96;93499.34;5071604;28;20717;-78
2022/05/06 08:20:55;;;;;;;10.67;10.07;;;;;;;18.18;54.14;93472.47;5068882;28;20261;-78
2022/05/06 08:23:22;;;;;;;15.90;14.70;;;;;;;18.37;53.73;93492.31;5067609;28;20194;-78
2022/05/06 08:25:49;;;;;;;12.67;11.77;;;;;;;18.02;54.03;93455.44;5070653;28;20185;-79
2022/05/06 08:28:15;;;;;;;11.87;10.97;;;;;;;18.65;53.98;93498.97;5072069;28;20182;-82
2022/05/06 08:30:41;;;;;;;11.27;10.57;;;;;;;18.23;52.96;93467.03;5058380;28;20190;-78
2022/05/06 08:33:06;;;;;;;11.60;10.70;;;;;;;18.24;53.47;93485.22;5063953;28;20237;-77
2022/05/06 08:35:32;;;;;;;9.67;9.07;;;;;;;18.62;53.62;93499.59;5070048;28;20186;-80
2022/05/06 08:37:58;;;;;;;10.10;9.50;;;;;;;18.46;52.90;93487.84;5066813;28;20263;-79
2022/05/06 08:40:29;;;;;;;10.40;9.80;;;;;;;18.55;52.37;93498.47;5064248;28;20244;-83
2022/05/06 08:42:55;;;;;;;10.63;9.80;;;;;;;18.21;52.97;93488.47;5068083;28;20225;-82
2022/05/06 08:50:53;;;;;;;11.53;10.77;;;;;;;18.70;53.38;93503.34;5073530;28;20211;-82
2022/05/06 08:53:23;;;;;;;10.60;9.80;;;;;;;18.95;52.43;93492.06;5071385;28;20225;-84
2022/05/06 08:55:52;;;;;;;10.33;9.73;;;;;;;19.31;51.89;93476.75;5066521;28;20184;-81
2022/05/06 08:58:19;;;;;;;10.50;9.80;;;;;;;19.58;50.79;93479.06;5050440;28;20187;-80
2022/05/06 09:00:45;;;;;;;10.13;9.43;;;;;;;20.25;49.63;93490.72;5064943;28;20254;-81
2022/05/06 09:03:14;;;;;;;10.73;10.07;;;;;;;20.30;48.89;93490.53;5052737;28;20202;-81
2022/05/06 09:05:51;;;;;;;10.43;9.83;;;;;;;20.29;48.09;93490.84;5050579;28;20260;-81
2022/05/06 09:08:17;;;;;;;9.50;8.90;;;;;;;20.09;48.74;93496.81;5064534;28;20273;-81
2022/05/06 09:10:42;;;;;;;9.60;9.00;;;;;;;19.82;48.77;93482.03;5075918;28;20184;-80
2022/05/06 09:13:08;;;;;;;10.60;9.80;;;;;;;19.19;49.38;93500.38;5060584;28;20306;-81
2022/05/06 09:18:19;;;;;;;9.83;9.33;;;;;;;19.89;48.14;93482.31;5065486;28;20233;-81
2022/05/06 09:20:45;;;;;;;9.83;9.33;;;;;;;19.85;46.81;93470.81;5087009;28;20263;-82
2022/05/06 09:23:28;;;;;;;9.83;9.23;;;;;;;19.82;48.31;93487.34;5064587;28;20192;-80
2022/05/06 09:25:55;;;;;;;9.63;9.13;;;;;;;20.20;46.39;93482.91;5078265;28;20178;-81
2022/05/06 09:28:31;;;;;;;10.33;9.73;;;;;;;20.08;47.45;93480.13;5066252;28;20999;-83
2022/05/06 09:31:06;;;;;;;10.03;9.30;;;;;;;20.34;44.54;93480.09;5071656;28;20228;-84
2022/05/06 09:33:35;;;;;;;10.20;9.60;;;;;;;19.68;44.54;93470.81;5066689;28;20226;-86
2022/05/06 09:36:29;;;;;;;10.07;9.47;;;;;;;19.43;45.21;93437.16;5070753;28;20238;-81
2022/05/06 09:39:13;;;;;;;11.00;10.40;;;;;;;19.88;46.16;93451.63;5063154;28;20218;-79
2022/05/06 09:41:40;;;;;;;9.80;9.23;;;;;;;20.18;42.69;93469.22;5067621;28;20246;-80
2022/05/06 09:44:07;;;;;;;10.20;9.60;;;;;;;20.44;42.58;93463.81;5064086;28;20196;-77
2022/05/06 09:46:34;;;;;;;9.10;8.70;;;;;;;20.76;39.56;93449.16;5061983;28;20252;-80
2022/05/06 09:49:01;;;;;;;10.20;9.47;;;;;;;20.70;39.83;93449.34;5068033;28;20187;-81
2022/05/06 09:51:28;;;;;;;9.20;8.65;;;;;;;20.95;39.09;93460.16;5068849;28;20241;-82
2022/05/06 09:53:56;;;;;;;9.30;8.77;;;;;;;20.83;39.16;93452.88;5073346;28;20203;-81
2022/05/06 09:56:22;;;;;;;8.80;8.38;;;;;;;20.56;40.71;93453.31;5070097;28;20242;-81
2022/05/06 09:58:51;;;;;;;10.68;10.07;;;;;;;20.14;40.89;93443.66;5061048;28;20193;-79
2022/05/06 10:01:18;;;;;;;9.93;9.23;;;;;;;20.45;39.62;93460.84;5063793;28;20226;-80
2022/05/06 10:03:44;;;;;;;9.40;8.87;;;;;;;20.26;39.66;93422.53;5070727;28;20254;-78
2022/05/06 10:06:10;;;;;;;9.10;8.67;;;;;;;20.65;39.33;93462.03;5069497;28;20833;-80
2022/05/06 10:08:38;;;;;;;10.50;9.77;;;;;;;20.24;40.28;93452.03;5068467;28;20223;-81
2022/05/06 10:11:15;;;;;;;10.15;9.50;;;;;;;20.33;40.10;93455.44;5069862;28;20299;-79
2022/05/06 10:13:44;;;;;;;9.77;9.17;;;;;;;20.50;39.99;93450.06;5074019;28;20211;-81
2022/05/06 10:16:11;;;;;;;10.15;9.52;;;;;;;20.64;38.96;93439.22;5070823;28;20232;-80
2022/05/06 10:18:38;;;;;;;10.60;9.98;;;;;;;20.60;44.44;93457.66;5064641;28;20278;-78
2022/05/06 10:21:08;;;;;;;9.83;9.30;;;;;;;21.07;38.85;93463.69;5076422;28;20279;-79
2022/05/06 10:23:42;;;;;;;9.98;9.38;;;;;;;20.89;39.27;93454.22;5078887;28;20198;-78
2022/05/06 10:26:08;;;;;;;9.90;9.33;;;;;;;20.75;38.90;93450.28;5069909;28;20258;-79
2022/05/06 10:34:18;;;;;;;9.57;9.07;;;;;;;20.39;40.94;93440.88;5067197;28;20250;-89
2022/05/06 10:36:53;;;;;;;10.10;9.37;;;;;;;20.48;40.83;93451.47;5071912;28;20237;-85
2022/05/06 10:39:20;;;;;;;10.13;9.23;;;;;;;20.68;41.26;93442.81;5071741;28;20208;-85
2022/05/06 10:42:12;;;;;;;10.35;9.52;;;;;;;20.72;39.33;93424.38;5046631;28;20231;-87
2022/05/06 10:44:37;;;;;;;10.37;9.77;;;;;;;20.87;42.17;93437.06;5043669;28;20196;-86
2022/05/06 10:47:12;;;;;;;9.40;8.80;;;;;;;21.24;38.40;93444.22;5051911;28;20255;-87
2022/05/06 10:49:41;;;;;;;9.82;9.25;;;;;;;21.34;37.57;93438.53;5052836;28;20197;-89
2022/05/06 10:52:15;;;;;;;9.73;9.20;;;;;;;20.88;38.14;93428.00;5068979;28;20236;-87
2022/05/06 10:54:49;;;;;;;9.65;9.15;;;;;;;21.00;37.93;93428.91;5068983;28;21021;-87
2022/05/06 10:57:20;;;;;;;9.00;8.40;;;;;;;20.90;37.87;93410.69;5065659;28;20278;-89
2022/05/06 10:59:55;;;;;;;9.70;9.10;;;;;;;20.92;38.35;93421.72;5071244;28;20219;-87
2022/05/06 11:02:27;;;;;;;9.65;9.00;;;;;;;21.26;38.17;93431.38;5076132;28;20252;-83
2022/05/06 11:04:53;;;;;;;9.15;8.65;;;;;;;21.18;39.49;93433.00;5063903;28;20186;-86
2022/05/06 11:07:19;;;;;;;9.38;8.88;;;;;;;21.39;38.08;93417.03;5072131;28;20230;-88
2022/05/06 11:09:46;;;;;;;16.05;14.52;;;;;;;21.41;38.57;93415.63;5075792;28;20188;-89
2022/05/06 11:12:28;;;;;;;10.48;9.85;;;;;;;21.59;38.06;93424.22;5071769;28;20224;-83
2022/05/06 11:14:54;;;;;;;9.50;8.95;;;;;;;21.32;37.01;93417.59;5079805;28;20183;-86
2022/05/06 11:17:20;;;;;;;8.60;8.15;;;;;;;21.22;36.75;93419.84;5068878;28;20319;-88
2022/05/06 11:19:46;;;;;;;9.05;8.55;;;;;;;21.25;37.62;93413.88;5072119;28;20208;-84
2022/05/06 11:22:11;;;;;;;10.40;9.70;;;;;;;21.37;37.09;93406.00;5068241;28;20230;-85
2022/05/06 11:24:37;;;;;;;8.77;8.13;;;;;;;21.49;37.12;93406.03;5072009;28;20188;-84
2022/05/06 11:27:12;;;;;;;9.55;9.02;;;;;;;21.28;38.12;93411.34;5056575;28;20263;-85
2022/05/06 11:29:50;;;;;;;9.20;8.70;;;;;;;21.28;36.87;93394.63;5070789;28;20174;-85
2022/05/06 11:32:17;;;;;;;10.20;9.60;;;;;;;21.32;37.58;93398.22;5069802;28;20240;-86
2022/05/06 11:34:50;;;;;;;9.85;9.35;;;;;;;21.13;37.60;93397.88;5068523;28;20257;-84
2022/05/06 11:37:23;;;;;;;9.57;9.07;;;;;;;21.24;36.78;93393.75;5074092;28;20228;-85
2022/05/06 11:39:50;;;;;;;9.45;8.85;;;;;;;21.47;37.41;93371.03;5085075;28;21065;-86
2022/05/06 11:42:22;;;;;;;9.20;8.70;;;;;;;21.45;36.59;93386.50;5066151;28;20256;-87
2022/05/06 11:47:42;;;;;;;9.90;9.20;;;;;;;21.33;37.20;93389.13;5073994;28;20234;-85
2022/05/06 11:50:08;;;;;;;8.63;8.13;;;;;;;21.32;36.01;93391.03;5071528;28;20243;-87
2022/05/06 11:52:34;;;;;;;9.88;9.27;;;;;;;21.36;37.37;93369.88;5066811;28;20244;-84
2022/05/06 11:55:00;;;;;;;8.95;8.45;;;;;;;21.52;36.46;93373.50;5066545;28;20187;-83
2022/05/06 11:57:27;;;;;;;9.70;9.00;;;;;;;20.48;36.16;93380.59;5066547;28;20247;-86
2022/05/06 11:59:53;;;;;;;9.30;8.80;;;;;;;20.58;36.62;93374.94;5070362;28;20190;-87
2022/05/06 12:02:18;;;;;;;9.93;9.33;;;;;;;20.21;36.33;93349.25;5050612;28;20244;-84